sensor_id;sensor_type;location;lat;lon;timestamp;temperature;humidity
14735;DHT22;7458;49.002;8.472;2023-10-09T00:01:51;16.10;99.90
14735;DHT22;7458;49.002;8.472;2023-10-09T00:04:18;16.20;99.90
14735;DHT22;7458;49.002;8.472;2023-10-09T00:06:46;16.20;99.90
14735;DHT22;7458;49.002;8.472;2023-10-09T00:09:12;16.20;99.90
14735;DHT22;7458;49.002;8.472;2023-10-09T00:11:44;16.90;99.90
14735;DHT22;7458;49.002;8.472;2023-10-09T00:14:11;16.30;99.90
14735;DHT22;7458;49.002;8.472;2023-10-09T00:16:37;16.20;99.90
14735;DHT22;7458;49.002;8.472;2023-10-09T00:19:12;16.30;99.90
14735;DHT22;7458;49.002;8.472;2023-10-09T00:21:47;15.80;99.90
14735;DHT22;7458;49.002;8.472;2023-10-09T00:24:15;16.30;99.90
14735;DHT22;7458;49.002;8.472;2023-10-09T00:26:48;16.30;99.90
14735;DHT22;7458;49.002;8.472;2023-10-09T00:29:21;16.50;99.90
14735;DHT22;7458;49.002;8.472;2023-10-09T00:31:54;16.30;99.90
14735;DHT22;7458;49.002;8.472;2023-10-09T00:34:33;16.20;99.90
14735;DHT22;7458;49.002;8.472;2023-10-09T00:37:06;16.30;99.90
14735;DHT22;7458;49.002;8.472;2023-10-09T00:39:44;16.40;99.90
14735;DHT22;7458;49.002;8.472;2023-10-09T00:42:13;16.30;99.90
14735;DHT22;7458;49.002;8.472;2023-10-09T00:44:42;16.30;99.90
14735;DHT22;7458;49.002;8.472;2023-10-09T00:47:12;16.30;99.90
14735;DHT22;7458;49.002;8.472;2023-10-09T00:50:03;16.20;99.90
14735;DHT22;7458;49.002;8.472;2023-10-09T00:52:52;16.30;99.90
14735;DHT22;7458;49.002;8.472;2023-10-09T00:55:27;16.30;99.90
14735;DHT22;7458;49.002;8.472;2023-10-09T00:58:03;15.70;99.90
14735;DHT22;7458;49.002;8.472;2023-10-09T01:00:36;16.40;99.90
14735;DHT22;7458;49.002;8.472;2023-10-09T01:03:16;16.30;99.90
14735;DHT22;7458;49.002;8.472;2023-10-09T01:05:44;16.20;99.90
14735;DHT22;7458;49.002;8.472;2023-10-09T01:08:34;16.30;99.90
14735;DHT22;7458;49.002;8.472;2023-10-09T01:11:18;16.30;99.90
14735;DHT22;7458;49.002;8.472;2023-10-09T01:13:48;16.40;99.90
14735;DHT22;7458;49.002;8.472;2023-10-09T01:16:18;16.30;99.90
14735;DHT22;7458;49.002;8.472;2023-10-09T01:18:54;16.20;99.90
14735;DHT22;7458;49.002;8.472;2023-10-09T01:21:24;16.20;99.90
14735;DHT22;7458;49.002;8.472;2023-10-09T01:23:52;16.50;99.90
14735;DHT22;7458;49.002;8.472;2023-10-09T01:26:31;15.80;99.90
14735;DHT22;7458;49.002;8.472;2023-10-09T01:29:23;16.20;99.90
14735;DHT22;7458;49.002;8.472;2023-10-09T01:31:54;16.20;99.90
14735;DHT22;7458;49.002;8.472;2023-10-09T01:34:24;18.00;99.90
14735;DHT22;7458;49.002;8.472;2023-10-09T01:37:10;16.40;99.90
14735;DHT22;7458;49.002;8.472;2023-10-09T01:39:40;15.80;99.90
14735;DHT22;7458;49.002;8.472;2023-10-09T01:42:08;16.10;99.90
14735;DHT22;7458;49.002;8.472;2023-10-09T01:44:35;16.10;99.90
14735;DHT22;7458;49.002;8.472;2023-10-09T01:47:08;16.20;99.90
14735;DHT22;7458;49.002;8.472;2023-10-09T01:49:39;15.80;99.90
14735;DHT22;7458;49.002;8.472;2023-10-09T01:52:14;16.00;99.90
14735;DHT22;7458;49.002;8.472;2023-10-09T01:54:43;16.00;99.90
14735;DHT22;7458;49.002;8.472;2023-10-09T01:57:16;16.10;99.90
14735;DHT22;7458;49.002;8.472;2023-10-09T01:59:55;15.80;99.90
14735;DHT22;7458;49.002;8.472;2023-10-09T02:02:23;15.20;99.90
14735;DHT22;7458;49.002;8.472;2023-10-09T02:04:53;16.00;99.90
14735;DHT22;7458;49.002;8.472;2023-10-09T02:07:20;15.90;99.90
14735;DHT22;7458;49.002;8.472;2023-10-09T02:09:54;16.00;99.90
14735;DHT22;7458;49.002;8.472;2023-10-09T02:12:20;16.00;99.90
14735;DHT22;7458;49.002;8.472;2023-10-09T02:14:47;16.00;99.90
14735;DHT22;7458;49.002;8.472;2023-10-09T02:17:13;16.00;99.90
14735;DHT22;7458;49.002;8.472;2023-10-09T02:19:54;16.10;99.90
14735;DHT22;7458;49.002;8.472;2023-10-09T02:22:19;16.00;99.90
14735;DHT22;7458;49.002;8.472;2023-10-09T02:24:46;16.00;99.90
14735;DHT22;7458;49.002;8.472;2023-10-09T02:27:19;16.00;99.90
14735;DHT22;7458;49.002;8.472;2023-10-09T02:30:04;16.00;99.90
14735;DHT22;7458;49.002;8.472;2023-10-09T02:32:44;16.10;99.90
14735;DHT22;7458;49.002;8.472;2023-10-09T02:35:20;15.90;99.90
14735;DHT22;7458;49.002;8.472;2023-10-09T02:38:05;16.00;99.90
14735;DHT22;7458;49.002;8.472;2023-10-09T02:40:33;16.10;99.90
14735;DHT22;7458;49.002;8.472;2023-10-09T02:43:08;15.90;99.90
14735;DHT22;7458;49.002;8.472;2023-10-09T02:45:43;15.90;99.90
14735;DHT22;7458;49.002;8.472;2023-10-09T02:48:18;15.80;99.90
14735;DHT22;7458;49.002;8.472;2023-10-09T02:50:46;15.50;99.90
14735;DHT22;7458;49.002;8.472;2023-10-09T02:53:12;15.80;99.90
14735;DHT22;7458;49.002;8.472;2023-10-09T02:55:45;15.80;99.90
14735;DHT22;7458;49.002;8.472;2023-10-09T02:58:29;15.80;99.90
14735;DHT22;7458;49.002;8.472;2023-10-09T03:00:58;16.10;99.90
14735;DHT22;7458;49.002;8.472;2023-10-09T03:03:25;15.90;99.90
14735;DHT22;7458;49.002;8.472;2023-10-09T03:05:51;15.60;99.90
14735;DHT22;7458;49.002;8.472;2023-10-09T03:08:17;15.60;99.90
14735;DHT22;7458;49.002;8.472;2023-10-09T03:10:45;15.70;99.90
14735;DHT22;7458;49.002;8.472;2023-10-09T03:13:10;15.50;99.90
14735;DHT22;7458;49.002;8.472;2023-10-09T03:15:38;15.60;99.90
14735;DHT22;7458;49.002;8.472;2023-10-09T03:18:04;15.50;99.90
14735;DHT22;7458;49.002;8.472;2023-10-09T03:20:33;15.50;99.90
14735;DHT22;7458;49.002;8.472;2023-10-09T03:23:00;15.50;99.90
14735;DHT22;7458;49.002;8.472;2023-10-09T03:25:27;15.50;99.90
14735;DHT22;7458;49.002;8.472;2023-10-09T03:27:54;15.40;99.90
14735;DHT22;7458;49.002;8.472;2023-10-09T03:30:21;15.80;99.90
14735;DHT22;7458;49.002;8.472;2023-10-09T03:32:48;15.60;99.90
14735;DHT22;7458;49.002;8.472;2023-10-09T03:35:18;15.30;99.90
14735;DHT22;7458;49.002;8.472;2023-10-09T03:37:57;15.40;99.90
14735;DHT22;7458;49.002;8.472;2023-10-09T03:40:26;15.30;99.90
14735;DHT22;7458;49.002;8.472;2023-10-09T03:42:52;15.20;99.90
14735;DHT22;7458;49.002;8.472;2023-10-09T03:45:19;15.20;99.90
14735;DHT22;7458;49.002;8.472;2023-10-09T03:47:53;15.40;99.90
14735;DHT22;7458;49.002;8.472;2023-10-09T03:50:40;15.00;99.90
14735;DHT22;7458;49.002;8.472;2023-10-09T03:55:38;15.40;99.90
14735;DHT22;7458;49.002;8.472;2023-10-09T03:58:05;15.40;99.90
14735;DHT22;7458;49.002;8.472;2023-10-09T04:00:32;15.10;99.90
14735;DHT22;7458;49.002;8.472;2023-10-09T04:03:06;15.60;99.90
14735;DHT22;7458;49.002;8.472;2023-10-09T04:07:58;15.10;99.90
14735;DHT22;7458;49.002;8.472;2023-10-09T04:10:27;15.10;99.90
14735;DHT22;7458;49.002;8.472;2023-10-09T04:13:09;15.20;99.90
14735;DHT22;7458;49.002;8.472;2023-10-09T04:15:38;15.30;99.90
14735;DHT22;7458;49.002;8.472;2023-10-09T04:18:07;15.20;99.90
14735;DHT22;7458;49.002;8.472;2023-10-09T04:20:40;15.20;99.90
14735;DHT22;7458;49.002;8.472;2023-10-09T04:23:32;15.00;99.90
14735;DHT22;7458;49.002;8.472;2023-10-09T04:26:21;15.20;99.90
14735;DHT22;7458;49.002;8.472;2023-10-09T04:28:50;15.20;99.90
14735;DHT22;7458;49.002;8.472;2023-10-09T04:31:21;15.10;99.90
14735;DHT22;7458;49.002;8.472;2023-10-09T04:33:58;14.80;99.90
14735;DHT22;7458;49.002;8.472;2023-10-09T04:36:42;15.10;99.90
14735;DHT22;7458;49.002;8.472;2023-10-09T04:39:22;15.20;99.90
14735;DHT22;7458;49.002;8.472;2023-10-09T04:42:01;15.10;99.90
14735;DHT22;7458;49.002;8.472;2023-10-09T04:44:46;15.20;99.90
14735;DHT22;7458;49.002;8.472;2023-10-09T04:47:34;15.10;99.90
14735;DHT22;7458;49.002;8.472;2023-10-09T04:50:15;15.00;99.90
14735;DHT22;7458;49.002;8.472;2023-10-09T04:52:44;14.90;99.90
14735;DHT22;7458;49.002;8.472;2023-10-09T04:55:14;15.00;99.90
14735;DHT22;7458;49.002;8.472;2023-10-09T04:57:47;15.00;99.90
14735;DHT22;7458;49.002;8.472;2023-10-09T05:00:26;15.00;99.90
14735;DHT22;7458;49.002;8.472;2023-10-09T05:02:54;15.00;99.90
14735;DHT22;7458;49.002;8.472;2023-10-09T05:05:28;14.90;99.90
14735;DHT22;7458;49.002;8.472;2023-10-09T05:11:09;14.60;99.90
14735;DHT22;7458;49.002;8.472;2023-10-09T05:13:41;14.90;99.90
14735;DHT22;7458;49.002;8.472;2023-10-09T05:16:17;15.10;99.90
14735;DHT22;7458;49.002;8.472;2023-10-09T05:18:48;14.90;99.90
14735;DHT22;7458;49.002;8.472;2023-10-09T05:21:39;14.50;99.90
14735;DHT22;7458;49.002;8.472;2023-10-09T05:24:09;15.40;99.90
14735;DHT22;7458;49.002;8.472;2023-10-09T05:32:00;14.70;99.90
14735;DHT22;7458;49.002;8.472;2023-10-09T05:34:43;15.10;99.90
14735;DHT22;7458;49.002;8.472;2023-10-09T05:37:27;13.90;99.90
14735;DHT22;7458;49.002;8.472;2023-10-09T05:40:04;15.20;99.90
14735;DHT22;7458;49.002;8.472;2023-10-09T05:42:48;15.10;99.90
14735;DHT22;7458;49.002;8.472;2023-10-09T05:45:25;15.00;99.90
14735;DHT22;7458;49.002;8.472;2023-10-09T05:48:10;15.20;99.90
14735;DHT22;7458;49.002;8.472;2023-10-09T05:50:39;15.20;99.90
14735;DHT22;7458;49.002;8.472;2023-10-09T05:53:25;15.30;99.90
14735;DHT22;7458;49.002;8.472;2023-10-09T05:56:09;15.50;99.90
14735;DHT22;7458;49.002;8.472;2023-10-09T05:58:53;15.30;99.90
14735;DHT22;7458;49.002;8.472;2023-10-09T06:01:37;15.50;99.90
14735;DHT22;7458;49.002;8.472;2023-10-09T06:04:21;15.40;99.90
14735;DHT22;7458;49.002;8.472;2023-10-09T06:06:59;15.50;99.90
14735;DHT22;7458;49.002;8.472;2023-10-09T06:09:36;15.60;99.90
14735;DHT22;7458;49.002;8.472;2023-10-09T06:12:15;15.70;99.90
14735;DHT22;7458;49.002;8.472;2023-10-09T06:15:15;16.20;99.90
14735;DHT22;7458;49.002;8.472;2023-10-09T06:17:56;15.50;99.90
14735;DHT22;7458;49.002;8.472;2023-10-09T06:20:41;15.70;99.90
14735;DHT22;7458;49.002;8.472;2023-10-09T06:23:26;15.80;99.90
14735;DHT22;7458;49.002;8.472;2023-10-09T06:26:11;15.90;99.90
14735;DHT22;7458;49.002;8.472;2023-10-09T06:28:50;16.00;99.90
14735;DHT22;7458;49.002;8.472;2023-10-09T06:31:37;15.80;99.90
14735;DHT22;7458;49.002;8.472;2023-10-09T06:34:32;15.40;99.90
14735;DHT22;7458;49.002;8.472;2023-10-09T06:37:01;16.40;99.90
14735;DHT22;7458;49.002;8.472;2023-10-09T06:39:31;16.10;99.90
14735;DHT22;7458;49.002;8.472;2023-10-09T06:42:18;16.20;99.90
14735;DHT22;7458;49.002;8.472;2023-10-09T06:45:02;16.10;99.90
14735;DHT22;7458;49.002;8.472;2023-10-09T06:47:49;16.10;99.90
14735;DHT22;7458;49.002;8.472;2023-10-09T06:50:22;16.30;99.90
14735;DHT22;7458;49.002;8.472;2023-10-09T06:52:53;16.20;99.90
14735;DHT22;7458;49.002;8.472;2023-10-09T06:55:38;16.20;99.90
14735;DHT22;7458;49.002;8.472;2023-10-09T06:58:30;16.40;99.90
14735;DHT22;7458;49.002;8.472;2023-10-09T07:01:10;16.60;99.90
14735;DHT22;7458;49.002;8.472;2023-10-09T07:06:26;16.80;99.90
14735;DHT22;7458;49.002;8.472;2023-10-09T07:09:02;17.00;99.90
14735;DHT22;7458;49.002;8.472;2023-10-09T07:11:34;16.60;99.90
14735;DHT22;7458;49.002;8.472;2023-10-09T07:17:02;17.00;99.90
14735;DHT22;7458;49.002;8.472;2023-10-09T07:19:42;16.70;99.90
14735;DHT22;7458;49.002;8.472;2023-10-09T07:22:09;16.40;99.90
14735;DHT22;7458;49.002;8.472;2023-10-09T07:24:50;16.80;99.90
14735;DHT22;7458;49.002;8.472;2023-10-09T07:27:28;16.80;99.90
14735;DHT22;7458;49.002;8.472;2023-10-09T07:30:12;16.70;99.90
14735;DHT22;7458;49.002;8.472;2023-10-09T07:33:06;16.80;99.90
14735;DHT22;7458;49.002;8.472;2023-10-09T07:35:36;17.40;99.90
14735;DHT22;7458;49.002;8.472;2023-10-09T07:38:27;17.20;99.90
14735;DHT22;7458;49.002;8.472;2023-10-09T07:41:01;16.90;99.90
14735;DHT22;7458;49.002;8.472;2023-10-09T07:43:29;16.90;99.90
14735;DHT22;7458;49.002;8.472;2023-10-09T07:46:14;16.90;99.90
14735;DHT22;7458;49.002;8.472;2023-10-09T07:48:59;16.90;99.90
14735;DHT22;7458;49.002;8.472;2023-10-09T07:51:40;17.10;99.90
14735;DHT22;7458;49.002;8.472;2023-10-09T07:54:10;16.60;99.90
14735;DHT22;7458;49.002;8.472;2023-10-09T07:56:41;17.30;99.90
14735;DHT22;7458;49.002;8.472;2023-10-09T07:59:14;17.30;99.90
14735;DHT22;7458;49.002;8.472;2023-10-09T08:01:49;17.30;99.90
14735;DHT22;7458;49.002;8.472;2023-10-09T08:04:21;17.50;99.90
14735;DHT22;7458;49.002;8.472;2023-10-09T08:07:07;17.50;99.90
14735;DHT22;7458;49.002;8.472;2023-10-09T08:09:35;17.30;99.90
14735;DHT22;7458;49.002;8.472;2023-10-09T08:12:37;17.40;99.90
14735;DHT22;7458;49.002;8.472;2023-10-09T08:15:23;17.40;99.90
14735;DHT22;7458;49.002;8.472;2023-10-09T08:17:59;16.90;99.90
14735;DHT22;7458;49.002;8.472;2023-10-09T08:20:36;17.60;99.90
14735;DHT22;7458;49.002;8.472;2023-10-09T08:23:21;17.60;99.90
14735;DHT22;7458;49.002;8.472;2023-10-09T08:26:14;17.70;99.90
14735;DHT22;7458;49.002;8.472;2023-10-09T08:28:53;17.80;99.90
14735;DHT22;7458;49.002;8.472;2023-10-09T08:31:40;17.80;99.90
14735;DHT22;7458;49.002;8.472;2023-10-09T08:34:15;18.20;99.90
14735;DHT22;7458;49.002;8.472;2023-10-09T08:36:51;18.00;99.90
14735;DHT22;7458;49.002;8.472;2023-10-09T08:39:21;18.10;99.90
14735;DHT22;7458;49.002;8.472;2023-10-09T08:41:55;18.30;99.90
14735;DHT22;7458;49.002;8.472;2023-10-09T08:44:27;18.30;99.90
14735;DHT22;7458;49.002;8.472;2023-10-09T08:46:57;18.40;99.90
14735;DHT22;7458;49.002;8.472;2023-10-09T08:49:24;18.30;99.90
14735;DHT22;7458;49.002;8.472;2023-10-09T08:51:51;18.50;99.90
14735;DHT22;7458;49.002;8.472;2023-10-09T08:54:20;18.50;99.90
14735;DHT22;7458;49.002;8.472;2023-10-09T08:56:46;18.60;99.90
14735;DHT22;7458;49.002;8.472;2023-10-09T08:59:16;18.90;99.90
14735;DHT22;7458;49.002;8.472;2023-10-09T09:01:50;18.80;99.90
14735;DHT22;7458;49.002;8.472;2023-10-09T09:04:41;19.00;99.90
14735;DHT22;7458;49.002;8.472;2023-10-09T09:07:27;19.00;99.90
14735;DHT22;7458;49.002;8.472;2023-10-09T09:10:00;19.10;99.90
14735;DHT22;7458;49.002;8.472;2023-10-09T09:12:43;19.10;99.90
14735;DHT22;7458;49.002;8.472;2023-10-09T09:15:16;19.30;99.90
14735;DHT22;7458;49.002;8.472;2023-10-09T09:17:46;19.90;99.90
14735;DHT22;7458;49.002;8.472;2023-10-09T09:20:25;19.50;99.90
14735;DHT22;7458;49.002;8.472;2023-10-09T09:23:00;19.60;99.90
14735;DHT22;7458;49.002;8.472;2023-10-09T09:25:46;19.90;99.90
14735;DHT22;7458;49.002;8.472;2023-10-09T09:28:24;20.00;99.60
14735;DHT22;7458;49.002;8.472;2023-10-09T09:31:07;20.10;99.50
14735;DHT22;7458;49.002;8.472;2023-10-09T09:33:41;20.20;99.30
14735;DHT22;7458;49.002;8.472;2023-10-09T09:36:08;20.20;99.20
14735;DHT22;7458;49.002;8.472;2023-10-09T09:38:37;19.90;99.90
14735;DHT22;7458;49.002;8.472;2023-10-09T09:41:14;20.50;99.10
14735;DHT22;7458;49.002;8.472;2023-10-09T09:43:54;20.60;98.70
14735;DHT22;7458;49.002;8.472;2023-10-09T09:46:27;20.70;97.90
14735;DHT22;7458;49.002;8.472;2023-10-09T09:49:04;20.80;97.50
14735;DHT22;7458;49.002;8.472;2023-10-09T09:51:32;21.00;97.70
14735;DHT22;7458;49.002;8.472;2023-10-09T09:53:58;21.00;97.40
14735;DHT22;7458;49.002;8.472;2023-10-09T09:56:28;21.10;97.20
14735;DHT22;7458;49.002;8.472;2023-10-09T09:58:57;21.20;97.60
14735;DHT22;7458;49.002;8.472;2023-10-09T10:01:33;21.30;97.60
14735;DHT22;7458;49.002;8.472;2023-10-09T10:04:09;21.20;99.90
14735;DHT22;7458;49.002;8.472;2023-10-09T10:06:40;21.40;97.20
14735;DHT22;7458;49.002;8.472;2023-10-09T10:09:10;21.60;96.70
14735;DHT22;7458;49.002;8.472;2023-10-09T10:12:07;21.50;96.90
14735;DHT22;7458;49.002;8.472;2023-10-09T10:14:54;21.60;97.10
14735;DHT22;7458;49.002;8.472;2023-10-09T10:20:25;21.40;97.00
14735;DHT22;7458;49.002;8.472;2023-10-09T10:23:17;21.30;97.10
14735;DHT22;7458;49.002;8.472;2023-10-09T10:25:45;21.40;97.40
14735;DHT22;7458;49.002;8.472;2023-10-09T10:30:54;21.60;97.40
14735;DHT22;7458;49.002;8.472;2023-10-09T10:33:21;22.00;97.70
14735;DHT22;7458;49.002;8.472;2023-10-09T10:35:52;22.60;96.10
14735;DHT22;7458;49.002;8.472;2023-10-09T10:38:29;23.10;95.80
14735;DHT22;7458;49.002;8.472;2023-10-09T10:41:16;23.50;95.30
14735;DHT22;7458;49.002;8.472;2023-10-09T10:43:45;23.80;99.90
14735;DHT22;7458;49.002;8.472;2023-10-09T10:46:22;23.80;99.90
14735;DHT22;7458;49.002;8.472;2023-10-09T10:48:54;23.40;94.00
14735;DHT22;7458;49.002;8.472;2023-10-09T10:51:35;23.40;93.10
14735;DHT22;7458;49.002;8.472;2023-10-09T10:54:04;23.10;93.40
14735;DHT22;7458;49.002;8.472;2023-10-09T10:57:29;23.00;93.60
14735;DHT22;7458;49.002;8.472;2023-10-09T10:59:56;22.90;99.00
14735;DHT22;7458;49.002;8.472;2023-10-09T11:03:00;22.70;93.40
14735;DHT22;7458;49.002;8.472;2023-10-09T11:05:41;22.70;93.30
14735;DHT22;7458;49.002;8.472;2023-10-09T11:08:11;22.60;93.20
14735;DHT22;7458;49.002;8.472;2023-10-09T11:10:37;22.40;97.20
14735;DHT22;7458;49.002;8.472;2023-10-09T11:13:25;22.40;92.70
14735;DHT22;7458;49.002;8.472;2023-10-09T11:16:04;22.50;92.30
14735;DHT22;7458;49.002;8.472;2023-10-09T11:18:54;22.50;92.60
14735;DHT22;7458;49.002;8.472;2023-10-09T11:21:22;22.50;92.10
14735;DHT22;7458;49.002;8.472;2023-10-09T11:26:47;22.50;91.90
14735;DHT22;7458;49.002;8.472;2023-10-09T11:29:20;22.60;92.20
14735;DHT22;7458;49.002;8.472;2023-10-09T11:32:05;22.60;92.10
14735;DHT22;7458;49.002;8.472;2023-10-09T11:34:35;22.90;96.80
14735;DHT22;7458;49.002;8.472;2023-10-09T11:37:07;22.80;91.70
14735;DHT22;7458;49.002;8.472;2023-10-09T11:39:41;22.90;91.60
14735;DHT22;7458;49.002;8.472;2023-10-09T11:42:20;22.90;91.60
14735;DHT22;7458;49.002;8.472;2023-10-09T11:45:07;22.90;91.60
14735;DHT22;7458;49.002;8.472;2023-10-09T11:47:47;25.50;92.50
14735;DHT22;7458;49.002;8.472;2023-10-09T11:53:19;23.20;91.80
14735;DHT22;7458;49.002;8.472;2023-10-09T11:55:48;23.40;91.60
14735;DHT22;7458;49.002;8.472;2023-10-09T11:58:16;23.50;91.30
14735;DHT22;7458;49.002;8.472;2023-10-09T12:00:52;23.60;91.30
14735;DHT22;7458;49.002;8.472;2023-10-09T12:03:39;24.20;91.10
14735;DHT22;7458;49.002;8.472;2023-10-09T12:06:05;24.30;91.20
14735;DHT22;7458;49.002;8.472;2023-10-09T12:08:34;24.60;90.10
14735;DHT22;7458;49.002;8.472;2023-10-09T12:11:02;24.80;87.10
14735;DHT22;7458;49.002;8.472;2023-10-09T12:13:28;25.00;88.10
14735;DHT22;7458;49.002;8.472;2023-10-09T12:15:54;25.20;92.20
14735;DHT22;7458;49.002;8.472;2023-10-09T12:18:23;25.20;84.40
14735;DHT22;7458;49.002;8.472;2023-10-09T12:20:50;25.50;84.40
14735;DHT22;7458;49.002;8.472;2023-10-09T12:23:21;25.50;81.00
14735;DHT22;7458;49.002;8.472;2023-10-09T12:25:51;25.50;79.20
14735;DHT22;7458;49.002;8.472;2023-10-09T12:28:22;25.80;87.40
14735;DHT22;7458;49.002;8.472;2023-10-09T12:30:49;25.30;78.80
14735;DHT22;7458;49.002;8.472;2023-10-09T12:33:18;25.30;87.60
14735;DHT22;7458;49.002;8.472;2023-10-09T12:35:46;25.20;77.80
14735;DHT22;7458;49.002;8.472;2023-10-09T12:38:13;25.10;78.40
14735;DHT22;7458;49.002;8.472;2023-10-09T12:40:44;25.00;77.60
14735;DHT22;7458;49.002;8.472;2023-10-09T12:43:17;24.90;74.00
14735;DHT22;7458;49.002;8.472;2023-10-09T12:45:45;24.90;75.50
14735;DHT22;7458;49.002;8.472;2023-10-09T12:48:12;24.80;74.30
14735;DHT22;7458;49.002;8.472;2023-10-09T12:50:40;24.90;74.60
14735;DHT22;7458;49.002;8.472;2023-10-09T12:53:12;24.90;75.30
14735;DHT22;7458;49.002;8.472;2023-10-09T12:55:43;24.90;75.30
14735;DHT22;7458;49.002;8.472;2023-10-09T12:58:11;24.90;74.80
14735;DHT22;7458;49.002;8.472;2023-10-09T13:00:41;24.90;74.60
14735;DHT22;7458;49.002;8.472;2023-10-09T13:03:15;24.90;74.40
14735;DHT22;7458;49.002;8.472;2023-10-09T13:05:50;24.90;72.40
14735;DHT22;7458;49.002;8.472;2023-10-09T13:08:19;25.00;72.40
14735;DHT22;7458;49.002;8.472;2023-10-09T13:10:52;25.00;72.80
14735;DHT22;7458;49.002;8.472;2023-10-09T13:13:28;25.00;71.10
14735;DHT22;7458;49.002;8.472;2023-10-09T13:16:11;25.00;70.20
14735;DHT22;7458;49.002;8.472;2023-10-09T13:18:46;24.90;68.80
14735;DHT22;7458;49.002;8.472;2023-10-09T13:23:52;24.50;77.80
14735;DHT22;7458;49.002;8.472;2023-10-09T13:26:23;25.00;69.70
14735;DHT22;7458;49.002;8.472;2023-10-09T13:28:54;25.00;70.40
14735;DHT22;7458;49.002;8.472;2023-10-09T13:31:24;25.00;69.40
14735;DHT22;7458;49.002;8.472;2023-10-09T13:33:52;24.70;76.50
14735;DHT22;7458;49.002;8.472;2023-10-09T13:36:25;25.00;67.80
14735;DHT22;7458;49.002;8.472;2023-10-09T13:39:03;25.10;68.30
14735;DHT22;7458;49.002;8.472;2023-10-09T13:41:53;25.10;68.40
14735;DHT22;7458;49.002;8.472;2023-10-09T13:46:53;25.20;66.90
14735;DHT22;7458;49.002;8.472;2023-10-09T13:49:19;25.20;67.20
14735;DHT22;7458;49.002;8.472;2023-10-09T13:51:48;25.20;68.30
14735;DHT22;7458;49.002;8.472;2023-10-09T13:54:16;25.30;79.60
14735;DHT22;7458;49.002;8.472;2023-10-09T13:56:55;24.40;80.00
14735;DHT22;7458;49.002;8.472;2023-10-09T13:59:21;25.20;69.60
14735;DHT22;7458;49.002;8.472;2023-10-09T14:01:51;25.20;70.20
14735;DHT22;7458;49.002;8.472;2023-10-09T14:04:21;25.30;70.10
14735;DHT22;7458;49.002;8.472;2023-10-09T14:06:49;25.40;70.20
14735;DHT22;7458;49.002;8.472;2023-10-09T14:09:22;25.30;70.60
14735;DHT22;7458;49.002;8.472;2023-10-09T14:12:10;25.40;70.80
14735;DHT22;7458;49.002;8.472;2023-10-09T14:14:46;25.70;79.00
14735;DHT22;7458;49.002;8.472;2023-10-09T14:17:19;25.40;70.80
14735;DHT22;7458;49.002;8.472;2023-10-09T14:19:54;25.40;70.70
14735;DHT22;7458;49.002;8.472;2023-10-09T14:22:26;24.10;80.30
14735;DHT22;7458;49.002;8.472;2023-10-09T14:24:54;25.50;69.80
14735;DHT22;7458;49.002;8.472;2023-10-09T14:27:25;25.40;70.50
14735;DHT22;7458;49.002;8.472;2023-10-09T14:29:55;25.60;70.40
14735;DHT22;7458;49.002;8.472;2023-10-09T14:32:23;25.50;69.70
14735;DHT22;7458;49.002;8.472;2023-10-09T14:34:55;25.50;69.10
14735;DHT22;7458;49.002;8.472;2023-10-09T14:37:29;25.40;68.00
14735;DHT22;7458;49.002;8.472;2023-10-09T14:39:58;25.40;69.00
14735;DHT22;7458;49.002;8.472;2023-10-09T14:42:25;25.30;78.90
14735;DHT22;7458;49.002;8.472;2023-10-09T14:44:53;25.40;68.70
14735;DHT22;7458;49.002;8.472;2023-10-09T14:47:20;25.50;68.60
14735;DHT22;7458;49.002;8.472;2023-10-09T14:49:49;25.50;67.90
14735;DHT22;7458;49.002;8.472;2023-10-09T14:52:16;25.50;67.70
14735;DHT22;7458;49.002;8.472;2023-10-09T14:54:46;25.50;68.10
14735;DHT22;7458;49.002;8.472;2023-10-09T14:57:13;25.40;68.90
14735;DHT22;7458;49.002;8.472;2023-10-09T14:59:39;25.30;67.90
14735;DHT22;7458;49.002;8.472;2023-10-09T15:02:05;25.30;67.70
14735;DHT22;7458;49.002;8.472;2023-10-09T15:04:32;25.20;67.70
14735;DHT22;7458;49.002;8.472;2023-10-09T15:07:01;25.20;68.30
14735;DHT22;7458;49.002;8.472;2023-10-09T15:09:27;25.10;67.70
14735;DHT22;7458;49.002;8.472;2023-10-09T15:11:56;25.20;67.80
14735;DHT22;7458;49.002;8.472;2023-10-09T15:14:23;25.10;67.80
14735;DHT22;7458;49.002;8.472;2023-10-09T15:16:49;24.90;78.40
14735;DHT22;7458;49.002;8.472;2023-10-09T15:19:16;24.70;78.90
14735;DHT22;7458;49.002;8.472;2023-10-09T15:21:42;25.00;68.20
14735;DHT22;7458;49.002;8.472;2023-10-09T15:24:16;25.00;68.30
14735;DHT22;7458;49.002;8.472;2023-10-09T15:26:47;25.10;68.60
14735;DHT22;7458;49.002;8.472;2023-10-09T15:29:27;25.00;68.70
14735;DHT22;7458;49.002;8.472;2023-10-09T15:31:57;25.00;68.70
14735;DHT22;7458;49.002;8.472;2023-10-09T15:34:33;25.10;80.30
14735;DHT22;7458;49.002;8.472;2023-10-09T15:37:05;24.90;69.10
14735;DHT22;7458;49.002;8.472;2023-10-09T15:39:35;24.90;69.60
14735;DHT22;7458;49.002;8.472;2023-10-09T15:42:02;24.80;68.70
14735;DHT22;7458;49.002;8.472;2023-10-09T15:44:32;24.70;68.90
14735;DHT22;7458;49.002;8.472;2023-10-09T15:47:04;24.80;68.10
14735;DHT22;7458;49.002;8.472;2023-10-09T15:49:34;24.50;78.30
14735;DHT22;7458;49.002;8.472;2023-10-09T15:52:03;24.70;68.10
14735;DHT22;7458;49.002;8.472;2023-10-09T15:54:29;24.80;68.30
14735;DHT22;7458;49.002;8.472;2023-10-09T15:56:56;24.70;68.20
14735;DHT22;7458;49.002;8.472;2023-10-09T15:59:23;26.90;70.00
14735;DHT22;7458;49.002;8.472;2023-10-09T16:01:50;24.70;68.40
14735;DHT22;7458;49.002;8.472;2023-10-09T16:04:17;24.60;68.20
14735;DHT22;7458;49.002;8.472;2023-10-09T16:06:43;24.60;68.50
14735;DHT22;7458;49.002;8.472;2023-10-09T16:09:09;24.20;78.40
14735;DHT22;7458;49.002;8.472;2023-10-09T16:11:37;24.20;78.60
14735;DHT22;7458;49.002;8.472;2023-10-09T16:14:05;24.40;77.80
14735;DHT22;7458;49.002;8.472;2023-10-09T16:16:35;25.10;78.50
14735;DHT22;7458;49.002;8.472;2023-10-09T16:19:08;24.40;69.10
14735;DHT22;7458;49.002;8.472;2023-10-09T16:21:38;24.40;69.20
14735;DHT22;7458;49.002;8.472;2023-10-09T16:24:05;24.30;78.50
14735;DHT22;7458;49.002;8.472;2023-10-09T16:26:32;24.30;69.30
14735;DHT22;7458;49.002;8.472;2023-10-09T16:29:10;24.30;69.50
14735;DHT22;7458;49.002;8.472;2023-10-09T16:31:37;23.80;78.60
14735;DHT22;7458;49.002;8.472;2023-10-09T16:34:04;24.40;79.20
14735;DHT22;7458;49.002;8.472;2023-10-09T16:36:36;24.10;80.80
14735;DHT22;7458;49.002;8.472;2023-10-09T16:39:03;24.30;79.60
14735;DHT22;7458;49.002;8.472;2023-10-09T16:41:29;24.10;70.20
14735;DHT22;7458;49.002;8.472;2023-10-09T16:44:03;24.00;79.80
14735;DHT22;7458;49.002;8.472;2023-10-09T16:48:57;24.10;70.20
14735;DHT22;7458;49.002;8.472;2023-10-09T16:51:24;23.80;82.40
14735;DHT22;7458;49.002;8.472;2023-10-09T16:53:51;24.00;80.90
14735;DHT22;7458;49.002;8.472;2023-10-09T16:58:50;23.80;71.30
14735;DHT22;7458;49.002;8.472;2023-10-09T17:01:18;23.80;72.30
14735;DHT22;7458;49.002;8.472;2023-10-09T17:03:47;23.80;72.40
14735;DHT22;7458;49.002;8.472;2023-10-09T17:06:23;23.70;72.60
14735;DHT22;7458;49.002;8.472;2023-10-09T17:08:49;23.70;73.20